sensor_id;sensor_type;location;lat;lon;timestamp;pressure;altitude;pressure_sealevel;temperature;humidity
44027;BME280;29696;55.698;37.460;2023-02-10T00:01:20;100539.75;;;-1.43;67.92
44027;BME280;29696;55.698;37.460;2023-02-10T00:03:47;100551.03;;;-1.46;67.78
44027;BME280;29696;55.698;37.460;2023-02-10T00:06:15;100545.84;;;-1.46;67.96
44027;BME280;29696;55.698;37.460;2023-02-10T00:08:42;100546.63;;;-1.41;68.19
44027;BME280;29696;55.698;37.460;2023-02-10T00:11:10;100542.28;;;-1.40;67.96
44027;BME280;29696;55.698;37.460;2023-02-10T00:13:38;100535.50;;;-1.46;67.84
44027;BME280;29696;55.698;37.460;2023-02-10T00:16:07;100531.16;;;-1.45;67.84
44027;BME280;29696;55.698;37.460;2023-02-10T00:18:34;100536.41;;;-1.48;68.09
44027;BME280;29696;55.698;37.460;2023-02-10T00:21:12;100524.91;;;-1.38;68.47
44027;BME280;29696;55.698;37.460;2023-02-10T00:23:39;100523.28;;;-1.41;67.95
44027;BME280;29696;55.698;37.460;2023-02-10T00:26:07;100518.97;;;-1.42;67.45
44027;BME280;29696;55.698;37.460;2023-02-10T00:28:34;100519.09;;;-1.46;67.05
44027;BME280;29696;55.698;37.460;2023-02-10T00:31:08;100513.84;;;-1.45;67.48
44027;BME280;29696;55.698;37.460;2023-02-10T00:33:35;100519.00;;;-1.43;67.25
44027;BME280;29696;55.698;37.460;2023-02-10T00:36:09;100506.84;;;-1.41;67.07
44027;BME280;29696;55.698;37.460;2023-02-10T00:38:36;100502.56;;;-1.42;66.75
44027;BME280;29696;55.698;37.460;2023-02-10T00:41:07;100500.81;;;-1.42;66.67
44027;BME280;29696;55.698;37.460;2023-02-10T00:43:34;100494.88;;;-1.47;66.62
44027;BME280;29696;55.698;37.460;2023-02-10T00:46:00;100488.97;;;-1.52;65.80
44027;BME280;29696;55.698;37.460;2023-02-10T00:48:26;100492.50;;;-1.56;65.34
44027;BME280;29696;55.698;37.460;2023-02-10T00:50:53;100494.31;;;-1.58;65.42
44027;BME280;29696;55.698;37.460;2023-02-10T00:53:19;100487.44;;;-1.61;65.36
44027;BME280;29696;55.698;37.460;2023-02-10T00:55:45;100479.78;;;-1.65;65.49
44027;BME280;29696;55.698;37.460;2023-02-10T00:58:12;100479.06;;;-1.70;65.46
44027;BME280;29696;55.698;37.460;2023-02-10T01:00:38;100472.13;;;-1.70;65.53
44027;BME280;29696;55.698;37.460;2023-02-10T01:03:04;100467.84;;;-1.72;65.78
44027;BME280;29696;55.698;37.460;2023-02-10T01:05:32;100455.88;;;-1.76;65.69
44027;BME280;29696;55.698;37.460;2023-02-10T01:07:58;100456.88;;;-1.82;65.35
44027;BME280;29696;55.698;37.460;2023-02-10T01:10:26;100461.25;;;-1.86;65.55
44027;BME280;29696;55.698;37.460;2023-02-10T01:12:53;100452.75;;;-1.91;65.99
44027;BME280;29696;55.698;37.460;2023-02-10T01:15:19;100442.47;;;-1.95;66.11
44027;BME280;29696;55.698;37.460;2023-02-10T01:17:46;100449.47;;;-1.97;66.23
44027;BME280;29696;55.698;37.460;2023-02-10T01:20:12;100441.63;;;-1.94;66.41
44027;BME280;29696;55.698;37.460;2023-02-10T01:22:38;100445.91;;;-1.95;66.21
44027;BME280;29696;55.698;37.460;2023-02-10T01:25:05;100435.63;;;-1.98;66.60
44027;BME280;29696;55.698;37.460;2023-02-10T01:27:31;100427.78;;;-1.95;66.34
44027;BME280;29696;55.698;37.460;2023-02-10T01:29:57;100426.88;;;-1.92;66.63
44027;BME280;29696;55.698;37.460;2023-02-10T01:32:24;100417.31;;;-1.90;66.50
44027;BME280;29696;55.698;37.460;2023-02-10T01:34:50;100417.28;;;-1.89;66.44
44027;BME280;29696;55.698;37.460;2023-02-10T01:37:16;100408.72;;;-1.92;66.56
44027;BME280;29696;55.698;37.460;2023-02-10T01:39:43;100405.28;;;-1.93;66.60
44027;BME280;29696;55.698;37.460;2023-02-10T01:42:13;100394.94;;;-1.93;66.87
44027;BME280;29696;55.698;37.460;2023-02-10T01:45:10;100409.56;;;-1.90;67.43
44027;BME280;29696;55.698;37.460;2023-02-10T01:47:39;100396.91;;;-2.04;67.38
44027;BME280;29696;55.698;37.460;2023-02-10T01:50:06;100392.63;;;-2.05;67.45
44027;BME280;29696;55.698;37.460;2023-02-10T01:52:33;100394.41;;;-2.07;67.43
44027;BME280;29696;55.698;37.460;2023-02-10T01:55:04;100385.69;;;-2.03;68.34
44027;BME280;29696;55.698;37.460;2023-02-10T01:57:33;100389.19;;;-2.05;67.84
44027;BME280;29696;55.698;37.460;2023-02-10T02:00:01;100384.03;;;-2.05;67.90
44027;BME280;29696;55.698;37.460;2023-02-10T02:02:37;100396.19;;;-2.09;67.80
44027;BME280;29696;55.698;37.460;2023-02-10T02:05:07;100392.84;;;-2.14;67.97
44027;BME280;29696;55.698;37.460;2023-02-10T02:07:43;100380.88;;;-2.18;68.19
44027;BME280;29696;55.698;37.460;2023-02-10T02:10:10;100378.31;;;-2.20;68.51
44027;BME280;29696;55.698;37.460;2023-02-10T02:13:25;100383.09;;;-2.03;68.67
44027;BME280;29696;55.698;37.460;2023-02-10T02:16:15;100376.25;;;-2.05;68.42
44027;BME280;29696;55.698;37.460;2023-02-10T02:32:03;100351.81;;;-1.94;68.09
44027;BME280;29696;55.698;37.460;2023-02-10T02:35:07;100345.72;;;-1.93;68.02
44027;BME280;29696;55.698;37.460;2023-02-10T02:37:41;100337.34;;;-2.02;68.01
44027;BME280;29696;55.698;37.460;2023-02-10T02:40:11;100332.31;;;-2.10;68.01
44027;BME280;29696;55.698;37.460;2023-02-10T02:42:38;100322.78;;;-2.08;68.44
44027;BME280;29696;55.698;37.460;2023-02-10T02:45:32;100313.97;;;-2.01;68.37
44027;BME280;29696;55.698;37.460;2023-02-10T02:51:49;100302.03;;;-2.07;68.82
44027;BME280;29696;55.698;37.460;2023-02-10T02:54:29;100305.63;;;-2.12;68.63
44027;BME280;29696;55.698;37.460;2023-02-10T03:00:12;100296.06;;;-2.10;68.65
44027;BME280;29696;55.698;37.460;2023-02-10T03:02:41;100293.38;;;-2.05;68.44
44027;BME280;29696;55.698;37.460;2023-02-10T03:05:09;100285.19;;;-2.24;68.32
44027;BME280;29696;55.698;37.460;2023-02-10T03:07:35;100280.91;;;-2.25;68.48
44027;BME280;29696;55.698;37.460;2023-02-10T03:10:03;100279.38;;;-2.33;68.89
44027;BME280;29696;55.698;37.460;2023-02-10T03:12:29;100288.00;;;-2.34;69.31
44027;BME280;29696;55.698;37.460;2023-02-10T03:14:56;100279.44;;;-2.36;69.10
44027;BME280;29696;55.698;37.460;2023-02-10T03:17:22;100264.06;;;-2.42;68.83
44027;BME280;29696;55.698;37.460;2023-02-10T03:19:48;100251.16;;;-2.43;69.14
44027;BME280;29696;55.698;37.460;2023-02-10T03:22:14;100246.81;;;-2.43;68.95
44027;BME280;29696;55.698;37.460;2023-02-10T03:24:41;100244.22;;;-2.43;69.38
44027;BME280;29696;55.698;37.460;2023-02-10T03:27:07;100239.97;;;-2.44;69.30
44027;BME280;29696;55.698;37.460;2023-02-10T03:29:33;100239.13;;;-2.44;69.46
44027;BME280;29696;55.698;37.460;2023-02-10T03:32:00;100231.28;;;-2.43;69.05
44027;BME280;29696;55.698;37.460;2023-02-10T03:34:28;100226.94;;;-2.41;69.11
44027;BME280;29696;55.698;37.460;2023-02-10T03:36:54;100225.19;;;-2.40;69.08
44027;BME280;29696;55.698;37.460;2023-02-10T03:39:20;100214.09;;;-2.45;68.97
44027;BME280;29696;55.698;37.460;2023-02-10T03:41:47;100208.91;;;-2.45;69.17
44027;BME280;29696;55.698;37.460;2023-02-10T03:44:13;100207.28;;;-2.48;69.28
44027;BME280;29696;55.698;37.460;2023-02-10T03:46:39;100213.19;;;-2.43;69.54
44027;BME280;29696;55.698;37.460;2023-02-10T03:49:06;100211.44;;;-2.42;69.58
44027;BME280;29696;55.698;37.460;2023-02-10T03:51:33;100196.78;;;-2.42;69.41
44027;BME280;29696;55.698;37.460;2023-02-10T03:53:59;100195.91;;;-2.42;69.39
44027;BME280;29696;55.698;37.460;2023-02-10T03:56:25;100193.38;;;-2.44;69.53
44027;BME280;29696;55.698;37.460;2023-02-10T03:58:51;100187.34;;;-2.44;70.03
44027;BME280;29696;55.698;37.460;2023-02-10T04:01:18;100183.03;;;-2.44;69.63
44027;BME280;29696;55.698;37.460;2023-02-10T04:03:45;100183.03;;;-2.45;69.70
44027;BME280;29696;55.698;37.460;2023-02-10T04:06:11;100171.84;;;-2.46;69.88
44027;BME280;29696;55.698;37.460;2023-02-10T04:08:38;100167.50;;;-2.44;69.82
44027;BME280;29696;55.698;37.460;2023-02-10T04:11:05;100181.16;;;-2.39;69.73
44027;BME280;29696;55.698;37.460;2023-02-10T04:13:33;100163.84;;;-2.37;69.61
44027;BME280;29696;55.698;37.460;2023-02-10T04:16:08;100170.69;;;-2.34;69.76
44027;BME280;29696;55.698;37.460;2023-02-10T04:18:35;100174.78;;;-2.25;69.51
44027;BME280;29696;55.698;37.460;2023-02-10T04:21:08;100167.34;;;-2.38;69.53
44027;BME280;29696;55.698;37.460;2023-02-10T04:23:35;100151.13;;;-2.44;69.59
44027;BME280;29696;55.698;37.460;2023-02-10T04:26:02;100153.81;;;-2.49;69.90
44027;BME280;29696;55.698;37.460;2023-02-10T04:28:29;100156.47;;;-2.50;69.87
44027;BME280;29696;55.698;37.460;2023-02-10T04:30:58;100135.94;;;-2.58;70.21
44027;BME280;29696;55.698;37.460;2023-02-10T04:33:25;100148.94;;;-2.60;70.86
44027;BME280;29696;55.698;37.460;2023-02-10T04:35:53;100131.81;;;-2.65;70.40
44027;BME280;29696;55.698;37.460;2023-02-10T04:38:20;100141.25;;;-2.64;70.63
44027;BME280;29696;55.698;37.460;2023-02-10T04:40:47;100123.28;;;-2.69;70.75
44027;BME280;29696;55.698;37.460;2023-02-10T04:43:13;100141.41;;;-2.69;70.86
44027;BME280;29696;55.698;37.460;2023-02-10T04:45:40;100145.69;;;-2.69;70.97
44027;BME280;29696;55.698;37.460;2023-02-10T04:48:06;100139.66;;;-2.68;70.89
44027;BME280;29696;55.698;37.460;2023-02-10T04:50:33;100142.31;;;-2.71;70.98
44027;BME280;29696;55.698;37.460;2023-02-10T04:53:01;100131.06;;;-2.70;71.13
44027;BME280;29696;55.698;37.460;2023-02-10T04:55:28;100148.34;;;-2.71;71.43
44027;BME280;29696;55.698;37.460;2023-02-10T04:57:54;100147.53;;;-2.73;71.21
44027;BME280;29696;55.698;37.460;2023-02-10T05:00:20;100143.31;;;-2.77;71.10
44027;BME280;29696;55.698;37.460;2023-02-10T05:02:47;100143.31;;;-2.77;71.35
44027;BME280;29696;55.698;37.460;2023-02-10T05:05:13;100131.16;;;-2.73;71.19
44027;BME280;29696;55.698;37.460;2023-02-10T05:07:40;100132.91;;;-2.74;71.18
44027;BME280;29696;55.698;37.460;2023-02-10T05:10:06;100129.53;;;-2.78;71.20
44027;BME280;29696;55.698;37.460;2023-02-10T05:12:33;100136.41;;;-2.77;71.58
44027;BME280;29696;55.698;37.460;2023-02-10T05:15:00;100128.69;;;-2.78;71.57
44027;BME280;29696;55.698;37.460;2023-02-10T05:17:26;100130.41;;;-2.79;71.64
44027;BME280;29696;55.698;37.460;2023-02-10T05:19:52;100121.78;;;-2.78;71.62
44027;BME280;29696;55.698;37.460;2023-02-10T05:22:19;100122.53;;;-2.74;71.48
44027;BME280;29696;55.698;37.460;2023-02-10T05:24:48;100121.72;;;-2.76;71.30
44027;BME280;29696;55.698;37.460;2023-02-10T05:27:17;100123.53;;;-2.78;71.36
44027;BME280;29696;55.698;37.460;2023-02-10T05:29:43;100116.59;;;-2.78;71.72
44027;BME280;29696;55.698;37.460;2023-02-10T05:32:10;100104.53;;;-2.79;71.73
44027;BME280;29696;55.698;37.460;2023-02-10T05:34:36;100088.09;;;-2.76;71.33
44027;BME280;29696;55.698;37.460;2023-02-10T05:37:02;100093.34;;;-2.79;71.66
44027;BME280;29696;55.698;37.460;2023-02-10T05:39:29;100084.66;;;-2.77;71.51
44027;BME280;29696;55.698;37.460;2023-02-10T05:41:57;100094.75;;;-2.66;71.67
44027;BME280;29696;55.698;37.460;2023-02-10T05:44:25;100091.88;;;-2.55;71.29
44027;BME280;29696;55.698;37.460;2023-02-10T05:46:52;100079.44;;;-2.42;70.91
44027;BME280;29696;55.698;37.460;2023-02-10T05:49:19;100082.47;;;-2.26;70.38
44027;BME280;29696;55.698;37.460;2023-02-10T05:51:46;100086.88;;;-1.99;69.48
44027;BME280;29696;55.698;37.460;2023-02-10T05:54:13;100101.22;;;-1.57;67.64
44027;BME280;29696;55.698;37.460;2023-02-10T05:56:39;100070.13;;;-1.59;67.00
44027;BME280;29696;55.698;37.460;2023-02-10T05:59:06;100082.44;;;-1.66;66.72
44027;BME280;29696;55.698;37.460;2023-02-10T06:01:33;100063.44;;;-1.38;66.66
44027;BME280;29696;55.698;37.460;2023-02-10T06:03:59;100062.25;;;-1.54;65.62
44027;BME280;29696;55.698;37.460;2023-02-10T06:06:25;100066.53;;;-1.83;65.75
44027;BME280;29696;55.698;37.460;2023-02-10T06:08:52;100063.66;;;-2.02;66.74
44027;BME280;29696;55.698;37.460;2023-02-10T06:11:18;100061.34;;;-2.11;67.44
44027;BME280;29696;55.698;37.460;2023-02-10T06:13:44;100053.28;;;-2.02;67.91
44027;BME280;29696;55.698;37.460;2023-02-10T06:16:10;100055.44;;;-1.04;67.14
44027;BME280;29696;55.698;37.460;2023-02-10T06:18:37;100049.88;;;-0.93;64.23
44027;BME280;29696;55.698;37.460;2023-02-10T06:21:04;100038.25;;;-0.56;63.03
44027;BME280;29696;55.698;37.460;2023-02-10T06:23:30;100043.38;;;-0.80;62.40
44027;BME280;29696;55.698;37.460;2023-02-10T06:25:57;100035.72;;;-1.09;62.69
44027;BME280;29696;55.698;37.460;2023-02-10T06:28:25;100047.56;;;-1.27;63.90
44027;BME280;29696;55.698;37.460;2023-02-10T06:30:52;100043.50;;;-1.36;64.31
44027;BME280;29696;55.698;37.460;2023-02-10T06:33:19;100035.72;;;-1.36;64.60
44027;BME280;29696;55.698;37.460;2023-02-10T06:35:46;100030.91;;;0.26;62.89
44027;BME280;29696;55.698;37.460;2023-02-10T06:38:13;100022.09;;;1.35;57.72
44027;BME280;29696;55.698;37.460;2023-02-10T06:40:39;100004.63;;;1.37;56.01
44027;BME280;29696;55.698;37.460;2023-02-10T06:43:05;100002.03;;;2.50;54.32
44027;BME280;29696;55.698;37.460;2023-02-10T06:45:32;99986.16;;;4.69;49.17
44027;BME280;29696;55.698;37.460;2023-02-10T06:47:59;99965.72;;;4.90;46.95
44027;BME280;29696;55.698;37.460;2023-02-10T06:50:25;99946.56;;;3.97;48.25
44027;BME280;29696;55.698;37.460;2023-02-10T06:52:51;99942.63;;;3.08;48.57
44027;BME280;29696;55.698;37.460;2023-02-10T06:55:18;99968.19;;;2.32;50.99
44027;BME280;29696;55.698;37.460;2023-02-10T06:57:44;99954.78;;;1.65;52.21
44027;BME280;29696;55.698;37.460;2023-02-10T07:00:13;99946.03;;;1.08;54.42
44027;BME280;29696;55.698;37.460;2023-02-10T07:02:40;99952.38;;;0.39;55.93
44027;BME280;29696;55.698;37.460;2023-02-10T07:05:07;99940.22;;;-0.04;57.56
44027;BME280;29696;55.698;37.460;2023-02-10T07:07:34;99917.81;;;-0.52;58.72
44027;BME280;29696;55.698;37.460;2023-02-10T07:10:02;99916.25;;;-0.80;60.27
44027;BME280;29696;55.698;37.460;2023-02-10T07:12:29;99891.81;;;-0.98;61.17
44027;BME280;29696;55.698;37.460;2023-02-10T07:14:55;99881.81;;;-1.08;61.29
44027;BME280;29696;55.698;37.460;2023-02-10T07:17:22;99882.34;;;-1.24;61.84
44027;BME280;29696;55.698;37.460;2023-02-10T07:19:48;99894.59;;;-1.27;62.11
44027;BME280;29696;55.698;37.460;2023-02-10T07:22:14;99893.22;;;-1.38;62.54
44027;BME280;29696;55.698;37.460;2023-02-10T07:24:40;99897.81;;;-1.46;62.89
44027;BME280;29696;55.698;37.460;2023-02-10T07:27:07;99892.84;;;-1.52;62.97
44027;BME280;29696;55.698;37.460;2023-02-10T07:29:33;99891.22;;;-1.56;63.16
44027;BME280;29696;55.698;37.460;2023-02-10T07:31:59;99882.50;;;-1.53;63.39
44027;BME280;29696;55.698;37.460;2023-02-10T07:34:26;99873.09;;;-1.56;62.81
44027;BME280;29696;55.698;37.460;2023-02-10T07:36:53;99871.16;;;-1.01;63.51
44027;BME280;29696;55.698;37.460;2023-02-10T07:39:23;99854.22;;;1.61;56.57
44027;BME280;29696;55.698;37.460;2023-02-10T07:41:50;99853.03;;;4.02;50.59
44027;BME280;29696;55.698;37.460;2023-02-10T07:44:19;99848.88;;;5.59;45.32
44027;BME280;29696;55.698;37.460;2023-02-10T07:46:50;99839.28;;;7.54;41.15
44027;BME280;29696;55.698;37.460;2023-02-10T07:49:17;99816.94;;;8.43;38.17
44027;BME280;29696;55.698;37.460;2023-02-10T07:51:43;99833.09;;;9.19;36.23
44027;BME280;29696;55.698;37.460;2023-02-10T07:54:09;99841.34;;;7.86;37.17
44027;BME280;29696;55.698;37.460;2023-02-10T07:56:36;99838.22;;;6.16;39.53
44027;BME280;29696;55.698;37.460;2023-02-10T07:59:02;99836.38;;;4.78;42.70
44027;BME280;29696;55.698;37.460;2023-02-10T08:01:29;99827.19;;;4.12;44.46
44027;BME280;29696;55.698;37.460;2023-02-10T08:03:55;99840.06;;;3.85;45.08
44027;BME280;29696;55.698;37.460;2023-02-10T08:06:25;99820.69;;;3.57;46.21
44027;BME280;29696;55.698;37.460;2023-02-10T08:08:51;99836.66;;;3.04;46.86
44027;BME280;29696;55.698;37.460;2023-02-10T08:11:18;99829.16;;;2.64;47.55
44027;BME280;29696;55.698;37.460;2023-02-10T08:13:45;99825.09;;;2.76;48.20
44027;BME280;29696;55.698;37.460;2023-02-10T08:16:11;99822.94;;;2.67;48.36
44027;BME280;29696;55.698;37.460;2023-02-10T08:18:38;99822.72;;;2.54;48.46
44027;BME280;29696;55.698;37.460;2023-02-10T08:21:05;99828.34;;;2.12;48.97
44027;BME280;29696;55.698;37.460;2023-02-10T08:23:31;99837.72;;;2.16;49.75
44027;BME280;29696;55.698;37.460;2023-02-10T08:26:01;99835.72;;;2.03;49.74
44027;BME280;29696;55.698;37.460;2023-02-10T08:28:27;99824.19;;;2.08;49.84
44027;BME280;29696;55.698;37.460;2023-02-10T08:30:54;99816.44;;;2.23;49.50
44027;BME280;29696;55.698;37.460;2023-02-10T08:33:20;99820.91;;;2.39;49.27
44027;BME280;29696;55.698;37.460;2023-02-10T08:35:46;99804.19;;;2.08;49.68
44027;BME280;29696;55.698;37.460;2023-02-10T08:38:13;99787.53;;;1.93;49.97
44027;BME280;29696;55.698;37.460;2023-02-10T08:40:39;99809.06;;;1.79;50.05
44027;BME280;29696;55.698;37.460;2023-02-10T08:43:05;99815.28;;;1.77;50.13
44027;BME280;29696;55.698;37.460;2023-02-10T08:45:32;99799.72;;;1.75;49.79
44027;BME280;29696;55.698;37.460;2023-02-10T08:47:58;99792.88;;;1.73;50.13
44027;BME280;29696;55.698;37.460;2023-02-10T08:50:27;99786.78;;;1.74;50.14
44027;BME280;29696;55.698;37.460;2023-02-10T08:52:53;99779.66;;;1.77;49.69
44027;BME280;29696;55.698;37.460;2023-02-10T08:55:19;99781.03;;;1.85;50.13
44027;BME280;29696;55.698;37.460;2023-02-10T08:57:46;99748.44;;;1.93;49.52
44027;BME280;29696;55.698;37.460;2023-02-10T09:00:12;99732.19;;;1.88;49.31
44027;BME280;29696;55.698;37.460;2023-02-10T09:02:39;99753.44;;;1.80;48.99
44027;BME280;29696;55.698;37.460;2023-02-10T09:05:05;99739.16;;;1.70;48.79
44027;BME280;29696;55.698;37.460;2023-02-10T09:07:32;99726.06;;;1.54;49.27
44027;BME280;29696;55.698;37.460;2023-02-10T09:09:59;99717.75;;;1.46;49.18
44027;BME280;29696;55.698;37.460;2023-02-10T09:12:25;99731.66;;;1.47;49.21
44027;BME280;29696;55.698;37.460;2023-02-10T09:14:51;99720.16;;;1.51;49.24
44027;BME280;29696;55.698;37.460;2023-02-10T09:17:18;99711.81;;;1.44;48.64
44027;BME280;29696;55.698;37.460;2023-02-10T09:19:44;99707.94;;;1.34;49.29
44027;BME280;29696;55.698;37.460;2023-02-10T09:22:10;99692.72;;;1.26;49.13
44027;BME280;29696;55.698;37.460;2023-02-10T09:24:36;99683.50;;;1.19;49.39
44027;BME280;29696;55.698;37.460;2023-02-10T09:27:03;99675.13;;;1.12;49.89
44027;BME280;29696;55.698;37.460;2023-02-10T09:29:29;99680.28;;;1.14;49.61
44027;BME280;29696;55.698;37.460;2023-02-10T09:31:55;99667.19;;;1.16;50.12
44027;BME280;29696;55.698;37.460;2023-02-10T09:34:23;99655.09;;;1.14;50.33
44027;BME280;29696;55.698;37.460;2023-02-10T09:36:49;99645.13;;;1.05;50.18
44027;BME280;29696;55.698;37.460;2023-02-10T09:39:15;99651.63;;;0.97;50.43
44027;BME280;29696;55.698;37.460;2023-02-10T09:41:51;99653.97;;;1.01;51.27
44027;BME280;29696;55.698;37.460;2023-02-10T09:50:54;99674.31;;;1.12;51.94
44027;BME280;29696;55.698;37.460;2023-02-10T09:53:25;99680.94;;;1.00;51.78
44027;BME280;29696;55.698;37.460;2023-02-10T09:55:57;99689.22;;;1.08;51.78
44027;BME280;29696;55.698;37.460;2023-02-10T09:58:54;99686.03;;;1.21;51.29
44027;BME280;29696;55.698;37.460;2023-02-10T10:01:25;99691.88;;;1.07;50.62
44027;BME280;29696;55.698;37.460;2023-02-10T10:04:14;99694.84;;;1.18;50.46
44027;BME280;29696;55.698;37.460;2023-02-10T10:06:44;99685.56;;;1.12;50.33
44027;BME280;29696;55.698;37.460;2023-02-10T10:12:20;99675.03;;;0.97;49.55
44027;BME280;29696;55.698;37.460;2023-02-10T10:14:47;99659.34;;;0.98;49.53
44027;BME280;29696;55.698;37.460;2023-02-10T10:17:44;99664.03;;;1.09;49.64
44027;BME280;29696;55.698;37.460;2023-02-10T10:20:50;99630.91;;;1.12;49.71
44027;BME280;29696;55.698;37.460;2023-02-10T10:30:17;99630.06;;;1.12;49.64
44027;BME280;29696;55.698;37.460;2023-02-10T10:33:02;99606.53;;;1.13;49.29
44027;BME280;29696;55.698;37.460;2023-02-10T10:35:38;99605.94;;;1.08;48.96
44027;BME280;29696;55.698;37.460;2023-02-10T10:38:23;99592.78;;;1.11;49.33
44027;BME280;29696;55.698;37.460;2023-02-10T10:40:53;99598.88;;;0.93;48.78
44027;BME280;29696;55.698;37.460;2023-02-10T10:43:27;99587.75;;;0.89;48.85
44027;BME280;29696;55.698;37.460;2023-02-10T10:46:03;99586.88;;;0.90;49.02
44027;BME280;29696;55.698;37.460;2023-02-10T10:48:32;99591.06;;;0.76;48.69
44027;BME280;29696;55.698;37.460;2023-02-10T10:51:03;99584.09;;;0.76;48.59
44027;BME280;29696;55.698;37.460;2023-02-10T10:54:04;99575.16;;;0.82;49.07
44027;BME280;29696;55.698;37.460;2023-02-10T10:56:38;99574.81;;;0.71;48.72
44027;BME280;29696;55.698;37.460;2023-02-10T11:02:15;99565.25;;;0.71;48.83
44027;BME280;29696;55.698;37.460;2023-02-10T11:04:42;99564.06;;;0.59;47.99
44027;BME280;29696;55.698;37.460;2023-02-10T11:07:16;99551.06;;;0.59;47.86
44027;BME280;29696;55.698;37.460;2023-02-10T11:09:52;99568.13;;;0.65;48.28
44027;BME280;29696;55.698;37.460;2023-02-10T11:12:31;99558.38;;;0.70;48.49
44027;BME280;29696;55.698;37.460;2023-02-10T11:15:00;99547.28;;;0.66;47.84
44027;BME280;29696;55.698;37.460;2023-02-10T11:17:34;99540.00;;;0.73;47.96
44027;BME280;29696;55.698;37.460;2023-02-10T11:20:25;99534.66;;;0.76;48.41
44027;BME280;29696;55.698;37.460;2023-02-10T11:23:00;99534.66;;;0.76;47.74
44027;BME280;29696;55.698;37.460;2023-02-10T11:25:31;99521.88;;;0.72;47.78
44027;BME280;29696;55.698;37.460;2023-02-10T11:27:58;99528.69;;;0.74;47.34
44027;BME280;29696;55.698;37.460;2023-02-10T11:30:33;99515.31;;;0.82;47.52
44027;BME280;29696;55.698;37.460;2023-02-10T11:33:01;99526.19;;;0.73;47.30
44027;BME280;29696;55.698;37.460;2023-02-10T11:35:29;99524.41;;;0.73;47.21
44027;BME280;29696;55.698;37.460;2023-02-10T11:38:00;99527.78;;;0.75;47.93
44027;BME280;29696;55.698;37.460;2023-02-10T11:40:30;99514.47;;;0.81;47.63
44027;BME280;29696;55.698;37.460;2023-02-10T11:42:59;99511.56;;;0.87;47.57
44027;BME280;29696;55.698;37.460;2023-02-10T11:45:29;99511.31;;;0.92;47.07
44027;BME280;29696;55.698;37.460;2023-02-10T11:48:19;99499.41;;;1.05;47.35
44027;BME280;29696;55.698;37.460;2023-02-10T11:50:46;99497.78;;;0.85;46.83
44027;BME280;29696;55.698;37.460;2023-02-10T11:53:27;99491.44;;;0.91;47.37
44027;BME280;29696;55.698;37.460;2023-02-10T11:56:01;99481.03;;;0.91;47.62
44027;BME280;29696;55.698;37.460;2023-02-10T11:59:02;99484.69;;;1.04;48.19
44027;BME280;29696;55.698;37.460;2023-02-10T12:01:51;99470.22;;;0.99;47.75
44027;BME280;29696;55.698;37.460;2023-02-10T12:11:13;99467.41;;;0.86;47.38
44027;BME280;29696;55.698;37.460;2023-02-10T12:18:09;99450.28;;;0.64;48.16
44027;BME280;29696;55.698;37.460;2023-02-10T12:21:10;99438.66;;;0.54;48.47
44027;BME280;29696;55.698;37.460;2023-02-10T12:27:37;99449.28;;;0.50;48.78
44027;BME280;29696;55.698;37.460;2023-02-10T12:34:06;99430.38;;;0.46;48.70
44027;BME280;29696;55.698;37.460;2023-02-10T12:37:13;99423.09;;;0.35;49.12
44027;BME280;29696;55.698;37.460;2023-02-10T12:52:44;99458.16;;;-0.10;50.63
44027;BME280;29696;55.698;37.460;2023-02-10T12:55:20;99452.34;;;-0.15;50.90
44027;BME280;29696;55.698;37.460;2023-02-10T12:57:52;99469.94;;;-0.21;51.19
44027;BME280;29696;55.698;37.460;2023-02-10T13:00:30;99443.25;;;-0.24;51.89
44027;BME280;29696;55.698;37.460;2023-02-10T13:03:19;99432.06;;;-0.26;51.55
44027;BME280;29696;55.698;37.460;2023-02-10T13:05:56;99421.28;;;-0.35;52.18
44027;BME280;29696;55.698;37.460;2023-02-10T13:08:48;99437.75;;;-0.36;52.24
44027;BME280;29696;55.698;37.460;2023-02-10T13:11:50;99420.63;;;-0.40;52.52
44027;BME280;29696;55.698;37.460;2023-02-10T13:14:25;99428.97;;;-0.53;52.76
44027;BME280;29696;55.698;37.460;2023-02-10T13:16:56;99429.16;;;-0.57;53.25
44027;BME280;29696;55.698;37.460;2023-02-10T13:33:21;99394.75;;;-0.61;53.75
44027;BME280;29696;55.698;37.460;2023-02-10T13:35:41;99400.56;;;-0.75;54.03
44027;BME280;29696;55.698;37.460;2023-02-10T13:38:14;99414.44;;;-0.76;53.71
44027;BME280;29696;55.698;37.460;2023-02-10T13:40:49;99416.28;;;-0.78;54.42
44027;BME280;29696;55.698;37.460;2023-02-10T13:43:33;99425.66;;;-0.75;54.47
44027;BME280;29696;55.698;37.460;2023-02-10T13:46:01;99412.19;;;-0.83;54.49
44027;BME280;29696;55.698;37.460;2023-02-10T13:48:33;99412.91;;;-0.80;54.48
44027;BME280;29696;55.698;37.460;2023-02-10T13:51:05;99412.19;;;-0.83;54.48
44027;BME280;29696;55.698;37.460;2023-02-10T13:53:55;99425.66;;;-0.75;54.41
44027;BME280;29696;55.698;37.460;2023-02-10T13:56:51;99420.59;;;-0.78;54.95
44027;BME280;29696;55.698;37.460;2023-02-10T13:59:39;99418.91;;;-0.79;55.26
44027;BME280;29696;55.698;37.460;2023-02-10T14:02:22;99417.28;;;-0.82;55.38
44027;BME280;29696;55.698;37.460;2023-02-10T14:04:52;99421.09;;;-0.89;55.07
44027;BME280;29696;55.698;37.460;2023-02-10T14:07:46;99409.50;;;-0.82;55.40
44027;BME280;29696;55.698;37.460;2023-02-10T14:10:40;99415.69;;;-0.84;55.21
44027;BME280;29696;55.698;37.460;2023-02-10T14:13:23;99409.88;;;-0.89;55.39
44027;BME280;29696;55.698;37.460;2023-02-10T14:16:06;99408.03;;;-0.87;55.36
44027;BME280;29696;55.698;37.460;2023-02-10T14:18:36;99408.16;;;-0.90;55.55
44027;BME280;29696;55.698;37.460;2023-02-10T14:21:23;99409.59;;;-0.83;55.32
44027;BME280;29696;55.698;37.460;2023-02-10T14:23:54;99401.09;;;-0.87;55.22
44027;BME280;29696;55.698;37.460;2023-02-10T14:26:28;99395.06;;;-0.87;55.22
44027;BME280;29696;55.698;37.460;2023-02-10T14:28:57;99394.16;;;-0.86;55.38
44027;BME280;29696;55.698;37.460;2023-02-10T14:31:27;99400.06;;;-0.83;55.65